createdAt,value
2023-01-05T00:00:09.588Z,97822.28
2023-01-05T00:02:38.401Z,97823.09
2023-01-05T00:05:09.520Z,97820.41
2023-01-05T00:07:38.249Z,97792.72
2023-01-05T00:10:28.993Z,97813.19
2023-01-05T00:13:15.011Z,97808.84
2023-01-05T00:15:57.619Z,97808.84
2023-01-05T00:18:43.617Z,97808.84
2023-01-05T00:21:34.034Z,97795.41
2023-01-05T00:24:02.596Z,97793.56
2023-01-05T00:26:31.297Z,97785.72
2023-01-05T00:28:59.862Z,97782.00
2023-01-05T00:31:28.455Z,97783.84
2023-01-05T00:33:57.135Z,97780.34
2023-01-05T00:36:27.098Z,97782.16
2023-01-05T00:38:55.782Z,97777.66
2023-01-05T00:41:24.488Z,97781.34
2023-01-05T00:43:53.094Z,97782.16
2023-01-05T00:46:21.867Z,97780.34
2023-01-05T00:48:50.545Z,97779.47
2023-01-05T00:51:19.238Z,97771.44
2023-01-05T00:53:49.357Z,97774.97
2023-01-05T00:56:18.183Z,97766.06
2023-01-05T00:58:46.754Z,97765.22
2023-01-05T01:01:15.471Z,97772.28
2023-01-05T01:03:44.254Z,97768.75
2023-01-05T01:06:12.934Z,97757.19
2023-01-05T01:08:41.615Z,97755.53
2023-01-05T01:11:11.987Z,97758.22
2023-01-05T01:13:40.621Z,97748.28
2023-01-05T01:16:09.512Z,97744.78
2023-01-05T01:18:38.578Z,97747.25
2023-01-05T01:21:07.584Z,97733.84
2023-01-05T01:23:37.831Z,97730.31
2023-01-05T01:26:07.242Z,97735.69
2023-01-05T01:28:37.185Z,97726.00
2023-01-05T01:31:06.045Z,97715.25
2023-01-05T01:33:34.879Z,97715.25
2023-01-05T01:36:05.535Z,97708.03
2023-01-05T01:38:34.210Z,97717.94
2023-01-05T01:41:03.022Z,97707.19
2023-01-05T01:43:47.843Z,97701.00
2023-01-05T01:46:17.529Z,97689.22
2023-01-05T01:48:48.497Z,97681.19
2023-01-05T01:51:20.113Z,97671.25
2023-01-05T01:53:51.005Z,97667.94
2023-01-05T01:56:21.967Z,97674.97
2023-01-05T01:58:52.086Z,97667.75
2023-01-05T02:01:20.863Z,97661.56
2023-01-05T02:03:49.525Z,97650.81
2023-01-05T02:06:18.455Z,97670.44
2023-01-05T02:08:47.435Z,97665.06
2023-01-05T02:11:26.474Z,97658.88
2023-01-05T02:14:08.022Z,97657.19
2023-01-05T02:16:44.554Z,97648.13
2023-01-05T02:20:12.583Z,97633.03
2023-01-05T02:23:10.374Z,97630.34
2023-01-05T02:26:14.742Z,97654.50
2023-01-05T02:29:02.923Z,97635.72
2023-01-05T02:31:34.291Z,97616.91
2023-01-05T02:34:10.807Z,97646.44
2023-01-05T02:36:43.412Z,97628.50
2023-01-05T02:39:15.187Z,97631.19
2023-01-05T02:41:48.538Z,97625.81
2023-01-05T02:44:18.301Z,97614.22
2023-01-05T02:46:48.636Z,97602.66
2023-01-05T02:49:17.261Z,97607.03
2023-01-05T02:51:49.426Z,97601.66
2023-01-05T02:54:20.777Z,97603.50
2023-01-05T02:56:51.507Z,97602.66
2023-01-05T02:59:22.655Z,97611.53
2023-01-05T03:01:55.318Z,97602.66
2023-01-05T03:04:26.243Z,97597.28
2023-01-05T03:06:56.901Z,97583.03
2023-01-05T03:09:28.589Z,97595.44
2023-01-05T03:12:19.921Z,97610.53
2023-01-05T03:14:51.797Z,97619.59
2023-01-05T03:17:25.597Z,97603.50
2023-01-05T03:19:54.382Z,97615.25
2023-01-05T03:22:42.756Z,97604.53
2023-01-05T03:25:29.955Z,97599.16
2023-01-05T03:28:16.376Z,97591.09
2023-01-05T03:31:07.308Z,97601.84
2023-01-05T03:33:58.615Z,97596.47
2023-01-05T03:36:29.163Z,97591.09
2023-01-05T03:38:57.987Z,97591.09
2023-01-05T03:41:27.496Z,97577.69
2023-01-05T03:43:56.059Z,97585.72
2023-01-05T03:46:24.792Z,97573.13
2023-01-05T03:48:54.855Z,97585.72
2023-01-05T03:51:23.518Z,97574.16
2023-01-05T03:53:52.285Z,97583.03
2023-01-05T03:56:20.926Z,97563.44
2023-01-05T03:58:49.527Z,97578.50
2023-01-05T04:01:18.147Z,97572.31
2023-01-05T04:03:47.021Z,97570.44
2023-01-05T04:06:17.645Z,97566.13
2023-01-05T04:08:46.223Z,97561.56
2023-01-05T04:11:16.438Z,97569.63
2023-01-05T04:13:45.046Z,97564.25
2023-01-05T04:16:13.685Z,97569.63
2023-01-05T04:18:42.628Z,97568.81
2023-01-05T04:21:11.161Z,97571.47
2023-01-05T04:23:41.312Z,97575.81
2023-01-05T04:26:09.963Z,97570.66
2023-01-05T04:28:38.665Z,97576.84
2023-01-05T04:31:07.258Z,97573.34
2023-01-05T04:33:36.498Z,97574.16
2023-01-05T04:36:05.521Z,97582.22
2023-01-05T04:38:34.229Z,97576.84
2023-01-05T04:41:04.455Z,97579.53
2023-01-05T04:43:33.014Z,97574.16
2023-01-05T04:46:01.682Z,97587.59
2023-01-05T04:48:31.959Z,97580.38
2023-01-05T04:51:00.658Z,97581.41
2023-01-05T04:53:29.496Z,97578.72
2023-01-05T04:55:58.347Z,97573.34
2023-01-05T04:58:28.388Z,97565.28
2023-01-05T05:00:56.932Z,97551.88
2023-01-05T05:03:29.607Z,97556.41
2023-01-05T05:06:01.639Z,97566.94
2023-01-05T05:08:30.768Z,97549.19
2023-01-05T05:10:59.941Z,97559.91
2023-01-05T05:13:31.397Z,97544.63
2023-01-05T05:16:00.116Z,97546.50
2023-01-05T05:18:29.005Z,97559.09
2023-01-05T05:20:57.701Z,97538.44
2023-01-05T05:23:26.398Z,97546.50
2023-01-05T05:25:55.134Z,97541.13
2023-01-05T05:28:28.213Z,97541.94
2023-01-05T05:30:58.634Z,97558.88
2023-01-05T05:33:27.581Z,97545.47
2023-01-05T05:35:56.143Z,97535.53
2023-01-05T05:38:24.827Z,97538.22
2023-01-05T05:40:53.624Z,97539.06
2023-01-05T05:43:22.229Z,97536.59
2023-01-05T05:45:51.208Z,97533.06
2023-01-05T05:48:21.196Z,97537.41
2023-01-05T05:50:49.937Z,97533.91
2023-01-05T05:53:18.579Z,97531.22
2023-01-05T05:55:50.116Z,97526.66
2023-01-05T05:58:19.001Z,97525.84
2023-01-05T06:00:47.678Z,97518.63
2023-01-05T06:03:16.806Z,97519.66
2023-01-05T06:05:47.659Z,97526.66
2023-01-05T06:08:16.497Z,97520.47
2023-01-05T06:10:45.109Z,97525.84
2023-01-05T06:13:13.955Z,97527.50
2023-01-05T06:15:43.099Z,97525.03
2023-01-05T06:18:11.962Z,97529.34
2023-01-05T06:20:40.706Z,97525.63
2023-01-05T06:23:10.857Z,97525.47
2023-01-05T06:25:39.447Z,97522.78
2023-01-05T06:28:08.444Z,97539.06
2023-01-05T06:30:37.129Z,97550.44
2023-01-05T06:33:06.017Z,97558.72
2023-01-05T06:35:34.645Z,97570.06
2023-01-05T06:38:03.264Z,97577.94
2023-01-05T06:40:33.172Z,97578.38
2023-01-05T06:43:01.819Z,97597.38
2023-01-05T06:45:30.606Z,97601.28
2023-01-05T06:48:01.227Z,97606.44
2023-01-05T06:50:30.644Z,97615.34
2023-01-05T06:52:59.237Z,97610.59
2023-01-05T06:55:27.836Z,97615.13
2023-01-05T06:58:01.015Z,97632.06
2023-01-05T07:00:30.262Z,97637.66
2023-01-05T07:02:59.062Z,97643.66
2023-01-05T07:05:27.748Z,97644.66
2023-01-05T07:07:56.496Z,97646.34
2023-01-05T07:10:25.182Z,97649.88
2023-01-05T07:12:53.717Z,97658.09
2023-01-05T07:15:23.857Z,97654.41
2023-01-05T07:17:52.585Z,97629.59
2023-01-05T07:20:21.289Z,97593.22
2023-01-05T07:22:50.063Z,97619.25
2023-01-05T07:25:18.963Z,97634.72
2023-01-05T07:27:52.965Z,97629.13
2023-01-05T07:30:23.238Z,97646.09
2023-01-05T07:32:51.968Z,97648.78
2023-01-05T07:35:20.631Z,97649.59
2023-01-05T07:37:49.363Z,97652.28
2023-01-05T07:40:18.190Z,97649.41
2023-01-05T07:42:52.511Z,97640.72
2023-01-05T07:45:21.204Z,97644.03
2023-01-05T07:47:51.172Z,97636.81
2023-01-05T07:50:19.833Z,97654.59
2023-01-05T07:52:48.537Z,97643.84
2023-01-05T07:55:17.487Z,97645.72
2023-01-05T07:57:47.041Z,97651.06
2023-01-05T08:00:16.754Z,97634.31
2023-01-05T08:02:46.202Z,97646.91
2023-01-05T08:05:16.280Z,97641.53
2023-01-05T08:07:44.870Z,97651.47
2023-01-05T08:10:31.658Z,97650.59
2023-01-05T08:13:21.788Z,97661.34
2023-01-05T08:15:51.929Z,97664.88
2023-01-05T08:18:20.833Z,97652.94
2023-01-05T08:20:54.991Z,97651.06
2023-01-05T08:23:25.404Z,97656.25
2023-01-05T08:25:55.371Z,97659.97
2023-01-05T08:28:28.437Z,97656.44
2023-01-05T08:31:02.914Z,97656.06
2023-01-05T08:33:31.563Z,97656.06
2023-01-05T08:38:30.467Z,97654.41
2023-01-05T08:41:00.784Z,97658.09
2023-01-05T08:43:29.435Z,97665.34
2023-01-05T08:45:58.138Z,97658.75
2023-01-05T08:48:26.988Z,97661.44
2023-01-05T08:50:55.555Z,97663.72
2023-01-05T08:53:25.593Z,97650.31
2023-01-05T08:55:54.384Z,97657.31
2023-01-05T08:58:23.162Z,97651.34
2023-01-05T09:00:53.803Z,97661.03
2023-01-05T09:03:22.863Z,97661.44
2023-01-05T09:05:55.108Z,97659.41
2023-01-05T09:08:25.398Z,97667.44
2023-01-05T09:10:54.045Z,97659.78
2023-01-05T09:13:22.945Z,97669.50
2023-01-05T09:18:20.084Z,97666.41
2023-01-05T09:20:56.394Z,97675.31
2023-01-05T09:23:27.206Z,97676.34
2023-01-05T09:25:55.817Z,97686.63
2023-01-05T09:28:24.735Z,97686.63
2023-01-05T09:30:53.558Z,97678.19
2023-01-05T09:33:22.302Z,97674.47
2023-01-05T09:35:56.138Z,97673.44
2023-01-05T09:38:26.419Z,97673.81
2023-01-05T09:40:56.614Z,97677.16
2023-01-05T09:43:28.308Z,97665.38
2023-01-05T09:45:57.635Z,97680.28
2023-01-05T09:48:26.463Z,97669.53
2023-01-05T09:50:55.453Z,97666.84
2023-01-05T09:53:29.436Z,97668.72
2023-01-05T09:55:58.067Z,97662.34
2023-01-05T09:58:30.382Z,97670.19
2023-01-05T10:01:09.232Z,97654.28
2023-01-05T10:06:34.639Z,97669.19
2023-01-05T10:09:05.531Z,97670.84
2023-01-05T10:11:56.141Z,97660.28
2023-01-05T10:14:29.830Z,97665.25
2023-01-05T10:17:38.666Z,97670.44
2023-01-05T10:19:47.287Z,97655.56
2023-01-05T10:22:38.436Z,97657.03
2023-01-05T10:25:21.156Z,97656.19
2023-01-05T10:27:56.869Z,97652.47
2023-01-05T10:30:28.087Z,97641.72
2023-01-05T10:33:26.444Z,97637.19
2023-01-05T10:36:01.880Z,97635.16
2023-01-05T10:38:43.267Z,97626.09
2023-01-05T10:41:19.437Z,97623.56
2023-01-05T10:44:09.343Z,97631.63
2023-01-05T10:46:42.798Z,97640.53
2023-01-05T10:49:14.912Z,97628.56
2023-01-05T10:51:43.725Z,97631.47
2023-01-05T10:54:20.916Z,97636.63
2023-01-05T10:56:51.043Z,97615.53
2023-01-05T10:59:19.764Z,97630.81
2023-01-05T11:01:49.191Z,97627.91
2023-01-05T11:04:33.700Z,97614.31
2023-01-05T11:07:07.244Z,97623.00
2023-01-05T11:09:40.445Z,97631.91
2023-01-05T11:12:18.363Z,97625.69
2023-01-05T11:14:58.062Z,97636.44
2023-01-05T11:17:30.817Z,97621.97
2023-01-05T11:19:59.489Z,97630.25
2023-01-05T11:22:30.719Z,97638.47
2023-01-05T11:25:16.594Z,97627.56
2023-01-05T11:27:50.573Z,97628.16
2023-01-05T11:30:25.807Z,97625.31
2023-01-05T11:32:54.689Z,97627.16
2023-01-05T11:35:31.659Z,97631.91
2023-01-05T11:38:00.913Z,97628.56
2023-01-05T11:40:31.930Z,97632.28
2023-01-05T11:43:02.200Z,97629.78
2023-01-05T11:45:36.230Z,97633.94
2023-01-05T11:48:07.235Z,97609.38
2023-01-05T11:50:43.216Z,97625.31
2023-01-05T11:53:25.245Z,97630.47
2023-01-05T11:56:01.546Z,97608.97
2023-01-05T11:58:34.912Z,97625.94
2023-01-05T12:01:21.891Z,97642.25
2023-01-05T12:04:24.024Z,97632.31
2023-01-05T12:07:28.926Z,97643.91
2023-01-05T12:10:00.697Z,97646.59
2023-01-05T12:12:41.781Z,97640.22
2023-01-05T12:15:47.305Z,97641.03
2023-01-05T12:19:03.000Z,97642.91
2023-01-05T12:21:34.161Z,97634.00
2023-01-05T12:24:39.966Z,97648.25
2023-01-05T12:27:20.662Z,97651.97
2023-01-05T12:34:13.308Z,97620.75
2023-01-05T12:36:57.528Z,97633.16
2023-01-05T12:39:52.652Z,97623.25
2023-01-05T12:42:47.505Z,97620.56
2023-01-05T12:45:58.992Z,97617.03
2023-01-05T12:48:30.365Z,97617.88
2023-01-05T12:51:07.546Z,97613.34
2023-01-05T12:53:48.546Z,97612.31
2023-01-05T12:56:23.267Z,97610.44
2023-01-05T12:59:12.327Z,97610.66
2023-01-05T13:01:45.516Z,97603.41
2023-01-05T13:04:34.312Z,97618.50
2023-01-05T13:07:09.351Z,97628.44
2023-01-05T13:09:37.997Z,97641.84
2023-01-05T13:12:08.845Z,97653.63
2023-01-05T13:14:38.649Z,97660.00
2023-01-05T13:17:11.818Z,97684.84
2023-01-05T13:19:46.280Z,97678.81
2023-01-05T13:22:23.788Z,97698.66
2023-01-05T13:24:54.138Z,97697.84
2023-01-05T13:27:22.787Z,97695.16
2023-01-05T13:29:54.330Z,97706.06
2023-01-05T13:32:42.598Z,97716.81
2023-01-05T13:35:27.851Z,97736.44
2023-01-05T13:38:39.578Z,97729.41
2023-01-05T13:41:22.390Z,97742.84
2023-01-05T13:44:38.511Z,97744.72
2023-01-05T13:47:45.863Z,97708.75
2023-01-05T13:50:45.519Z,97733.97
2023-01-05T13:53:15.847Z,97731.28
2023-01-05T13:55:51.186Z,97727.75
2023-01-05T13:58:38.641Z,97733.13
2023-01-05T14:01:09.582Z,97739.34
2023-01-05T14:03:40.101Z,97737.69
2023-01-05T14:06:18.960Z,97745.75
2023-01-05T14:08:58.051Z,97725.63
2023-01-05T14:11:27.433Z,97739.72
2023-01-05T14:13:58.568Z,97744.88
2023-01-05T14:17:09.001Z,97745.09
2023-01-05T14:19:53.328Z,97746.94
2023-01-05T14:22:42.491Z,97750.47
2023-01-05T14:25:47.513Z,97749.81
2023-01-05T14:28:38.896Z,97754.16
2023-01-05T14:31:43.720Z,97754.16
2023-01-05T14:34:20.790Z,97743.41
2023-01-05T14:37:03.327Z,97730.84
2023-01-05T14:39:43.971Z,97727.50
2023-01-05T14:42:29.308Z,97739.06
2023-01-05T14:45:00.961Z,97731.84
2023-01-05T14:47:39.623Z,97714.91
2023-01-05T14:50:23.155Z,97716.56
2023-01-05T14:52:58.823Z,97725.47
2023-01-05T14:55:40.127Z,97718.22
2023-01-05T14:58:17.036Z,97738.91
2023-01-05T15:00:54.785Z,97733.53
2023-01-05T15:03:35.668Z,97732.66
2023-01-05T15:06:09.893Z,97729.97
2023-01-05T15:09:07.501Z,97734.34
2023-01-05T15:11:57.847Z,97744.28
2023-01-05T15:15:19.539Z,97738.03
2023-01-05T15:18:20.857Z,97740.94
2023-01-05T15:21:34.644Z,97738.41
2023-01-05T15:24:44.162Z,97750.00
2023-01-05T15:27:47.177Z,97741.75
2023-01-05T15:30:42.581Z,97753.72
2023-01-05T15:33:19.391Z,97761.59
2023-01-05T15:35:52.317Z,97764.06
2023-01-05T15:38:22.884Z,97764.00
2023-01-05T15:40:56.293Z,97768.78
2023-01-05T15:43:26.623Z,97766.97
2023-01-05T15:45:55.597Z,97770.47
2023-01-05T15:48:41.084Z,97775.19
2023-01-05T15:51:11.527Z,97763.06
2023-01-05T15:53:44.144Z,97780.00
2023-01-05T15:56:27.673Z,97788.06
2023-01-05T15:58:57.706Z,97785.38
2023-01-05T16:01:27.736Z,97771.97
2023-01-05T16:04:09.269Z,97781.00
2023-01-05T16:06:39.704Z,97786.38
2023-01-05T16:09:12.757Z,97784.34
2023-01-05T16:11:44.236Z,97792.69
2023-01-05T16:14:19.235Z,97794.91
2023-01-05T16:16:53.320Z,97807.16
2023-01-05T16:19:26.782Z,97819.53
2023-01-05T16:21:58.735Z,97826.31
2023-01-05T16:24:30.182Z,97821.56
2023-01-05T16:26:58.895Z,97850.50
2023-01-05T16:29:39.261Z,97851.13
2023-01-05T16:32:32.595Z,97866.25
2023-01-05T16:35:31.663Z,97861.69
2023-01-05T16:38:25.925Z,97864.56
2023-01-05T16:41:15.491Z,97867.72
2023-01-05T16:43:53.551Z,97867.06
2023-01-05T16:46:40.881Z,97884.19
2023-01-05T16:49:41.226Z,97873.28
2023-01-05T16:52:24.377Z,97868.56
2023-01-05T16:55:28.341Z,97881.50
2023-01-05T16:57:57.425Z,97877.00
2023-01-05T17:00:38.432Z,97885.06
2023-01-05T17:03:32.863Z,97896.78
2023-01-05T17:06:02.114Z,97901.16
2023-01-05T17:08:31.969Z,97903.19
2023-01-05T17:11:00.761Z,97899.84
2023-01-05T17:13:33.796Z,97911.72
2023-01-05T17:16:04.311Z,97910.06
2023-01-05T17:18:34.313Z,97909.22
2023-01-05T17:21:03.247Z,97914.59
2023-01-05T17:23:36.650Z,97918.28
2023-01-05T17:26:07.220Z,97913.94
2023-01-05T17:28:35.928Z,97931.91
2023-01-05T17:31:04.799Z,97927.75
2023-01-05T17:33:35.158Z,97933.13
2023-01-05T17:36:04.031Z,97951.56
2023-01-05T17:38:32.946Z,97940.59
2023-01-05T17:41:01.554Z,97954.03
2023-01-05T17:43:30.408Z,97951.56
2023-01-05T17:45:59.143Z,97957.97
2023-01-05T17:48:27.881Z,97931.09
2023-01-05T17:50:57.854Z,97948.22
2023-01-05T17:53:26.482Z,97968.69
2023-01-05T17:55:55.042Z,97958.94
2023-01-05T17:58:26.455Z,97952.75
2023-01-05T18:00:56.031Z,97963.66
2023-01-05T18:03:24.724Z,97969.03
2023-01-05T18:05:54.215Z,97960.97
2023-01-05T18:08:24.343Z,97970.72
2023-01-05T18:10:53.065Z,97982.13
2023-01-05T18:13:22.895Z,97991.19
2023-01-05T18:15:53.254Z,97988.63
2023-01-05T18:18:22.459Z,97987.97
2023-01-05T18:20:52.013Z,97990.19
2023-01-05T18:23:22.118Z,98022.44
2023-01-05T18:25:52.053Z,98005.06
2023-01-05T18:28:20.924Z,98012.69
2023-01-05T18:30:49.613Z,98010.00
2023-01-05T18:33:18.421Z,98023.41
2023-01-05T18:35:50.487Z,98028.13
2023-01-05T18:38:19.298Z,98026.47
2023-01-05T18:40:50.131Z,98040.94
2023-01-05T18:43:20.271Z,98052.69
2023-01-05T18:45:56.131Z,98060.94
2023-01-05T18:48:24.916Z,98053.88
2023-01-05T18:50:53.824Z,98059.44
2023-01-05T18:53:23.105Z,98065.81
2023-01-05T18:55:51.759Z,98070.19
2023-01-05T18:58:21.903Z,98074.75
2023-01-05T19:00:50.451Z,98070.38
2023-01-05T19:03:19.077Z,98087.31
2023-01-05T19:05:47.853Z,98073.50
2023-01-05T19:08:16.452Z,98084.25
2023-01-05T19:10:45.086Z,98080.75
2023-01-05T19:13:13.831Z,98085.28
2023-01-05T19:15:43.977Z,98087.44
2023-01-05T19:18:12.719Z,98095.50
2023-01-05T19:20:41.501Z,98098.53
2023-01-05T19:23:10.082Z,98103.34
2023-01-05T19:25:38.792Z,98110.78
2023-01-05T19:28:07.545Z,98093.47
2023-01-05T19:30:36.183Z,98116.31
2023-01-05T19:33:06.160Z,98103.34
2023-01-05T19:35:35.075Z,98114.09
2023-01-05T19:38:03.692Z,98111.41
2023-01-05T19:40:32.366Z,98118.47
2023-01-05T19:43:01.060Z,98131.25
2023-01-05T19:45:29.596Z,98131.06
2023-01-05T19:47:58.098Z,98134.59
2023-01-05T19:50:28.276Z,98140.97
2023-01-05T19:52:57.192Z,98143.03
2023-01-05T19:55:25.740Z,98164.50
2023-01-05T19:57:54.418Z,98161.81
2023-01-05T20:00:23.202Z,98158.47
2023-01-05T20:02:51.930Z,98172.72
2023-01-05T20:05:20.707Z,98188.84
2023-01-05T20:07:53.658Z,98184.31
2023-01-05T20:10:23.126Z,98199.75
2023-01-05T20:12:53.062Z,98180.13
2023-01-05T20:15:21.707Z,98189.00
2023-01-05T20:17:50.395Z,98205.13
2023-01-05T20:20:19.133Z,98196.25
2023-01-05T20:22:47.836Z,98216.91
2023-01-05T20:25:17.947Z,98211.53
2023-01-05T20:27:46.526Z,98234.88
2023-01-05T20:30:15.914Z,98222.47
2023-01-05T20:32:44.594Z,98248.31
2023-01-05T20:35:14.089Z,98249.13
2023-01-05T20:37:44.863Z,98247.47
2023-01-05T20:40:13.656Z,98247.47
2023-01-05T20:42:43.601Z,98259.88
2023-01-05T20:45:14.557Z,98260.91
2023-01-05T20:47:47.813Z,98261.91
2023-01-05T20:50:16.923Z,98278.88
2023-01-05T20:52:45.684Z,98287.94
2023-01-05T20:55:17.831Z,98287.94
2023-01-05T20:57:48.772Z,98298.66
2023-01-05T21:00:18.457Z,98300.38
2023-01-05T21:02:48.464Z,98298.66
2023-01-05T21:05:17.760Z,98309.25
2023-01-05T21:07:46.712Z,98310.25
2023-01-05T21:10:15.511Z,98312.78
2023-01-05T21:12:44.071Z,98331.56
2023-01-05T21:15:14.207Z,98345.84
2023-01-05T21:17:43.283Z,98352.22
2023-01-05T21:20:11.989Z,98349.53
2023-01-05T21:22:40.663Z,98353.22
2023-01-05T21:25:11.643Z,98355.91
2023-01-05T21:27:44.143Z,98357.75
2023-01-05T21:30:15.070Z,98350.53
2023-01-05T21:32:43.738Z,98349.53
2023-01-05T21:35:12.302Z,98353.22
2023-01-05T21:37:40.972Z,98364.84
2023-01-05T21:40:11.794Z,98358.59
2023-01-05T21:42:45.283Z,98353.41
2023-01-05T21:45:15.476Z,98362.31
2023-01-05T21:47:44.106Z,98356.09
2023-01-05T21:50:34.257Z,98362.31
2023-01-05T21:53:20.469Z,98371.38
2023-01-05T21:56:07.766Z,98371.38
2023-01-05T21:58:36.588Z,98377.59
2023-01-05T22:01:06.877Z,98378.41
2023-01-05T22:03:35.529Z,98380.28
2023-01-05T22:06:04.375Z,98379.44
2023-01-05T22:08:32.933Z,98389.16
2023-01-05T22:11:02.953Z,98399.91
2023-01-05T22:13:31.552Z,98399.91
2023-01-05T22:16:00.167Z,98410.66
2023-01-05T22:18:30.116Z,98410.81
2023-01-05T22:20:59.429Z,98406.31
2023-01-05T22:23:27.989Z,98414.38
2023-01-05T22:26:01.459Z,98415.34
2023-01-05T22:28:30.421Z,98405.63
2023-01-05T22:31:07.268Z,98413.84
2023-01-05T22:33:39.052Z,98419.75
2023-01-05T22:36:08.288Z,98426.78
2023-01-05T22:38:38.824Z,98433.16
2023-01-05T22:41:09.356Z,98447.59
2023-01-05T22:43:38.993Z,98441.53
2023-01-05T22:46:12.465Z,98451.28
2023-01-05T22:48:46.133Z,98454.97
2023-01-05T22:51:16.511Z,98469.28
2023-01-05T22:53:45.609Z,98474.63
2023-01-05T22:56:15.290Z,98477.47
2023-01-05T22:58:44.189Z,98468.41
2023-01-05T23:01:14.743Z,98479.16
2023-01-05T23:03:44.729Z,98467.56
2023-01-05T23:06:13.516Z,98474.78
2023-01-05T23:08:42.942Z,98480.16
2023-01-05T23:11:13.051Z,98472.09
2023-01-05T23:13:42.278Z,98485.53
2023-01-05T23:16:11.182Z,98483.88
2023-01-05T23:18:40.635Z,98481.19
2023-01-05T23:21:14.188Z,98487.41
2023-01-05T23:23:44.203Z,98483.00
2023-01-05T23:28:44.382Z,98500.00
2023-01-05T23:31:14.662Z,98504.50
2023-01-05T23:33:45.198Z,98515.25
2023-01-05T23:36:17.158Z,98510.06
2023-01-05T23:38:45.987Z,98491.25
2023-01-05T23:43:45.800Z,98510.06
2023-01-05T23:46:16.616Z,98515.44
2023-01-05T23:48:45.669Z,98518.13
2023-01-05T23:51:16.669Z,98513.75
2023-01-05T23:53:46.266Z,98517.44
2023-01-05T23:56:17.346Z,98529.88
2023-01-05T23:58:46.143Z,98520.97
